Giorgos Dracopoulos — 9HA3377 — position and weather

sailwx.info

Track history (hours):
 
Tides and Currents Weather Stations Pressure Air Temp Water Temp Dewpoint Dewpoint Depression Visibility Wind Speed Wind Dir Waves Ship Positions

Giorgos Dracopoulos

Last reported at 2018-Jul-30 10:03 UTC. Time now 2018-Aug-17 11:41 UTC.
Position N 28°07' W 118°40'.
Warning: this ship's position is 18 days out of date.

Length 199 m; draft 13.2 m.

Type: Cargo ship. MMSI: 229523000.

Date/timePositionNaut miles runAvg speedWind from/ knotsBaromVisibWave heightAir tempDewpointWater temp
2018-Jul-30 10:03N 28°07' W 118°40'112.1
2018-Jul-30 10:00N 28°07' W 118°40'3712.6
2018-Jul-30 07:04N 28°30' W 119°14'312.4
2018-Jul-30 06:50N 28°32' W 119°16'512.5
2018-Jul-30 06:25N 28°35' W 119°21'512.4
2018-Jul-30 06:01N 28°38' W 119°25'612.2
2018-Jul-30 05:30N 28°42' W 119°31'612.2
2018-Jul-30 05:00N 28°46' W 119°36'712.3
2018-Jul-30 04:26N 28°50' W 119°43'712.6
2018-Jul-30 03:54N 28°54' W 119°49'513.1
2018-Jul-30 03:30N 28°57' W 119°53'612.8
2018-Jul-30 03:00N 29°01' W 119°59'612.6
2018-Jul-30 02:30N 29°05' W 120°05'912.6
2018-Jul-30 01:49N 29°10' W 120°13'412.8
2018-Jul-30 01:30N 29°13' W 120°16'812.6
2018-Jul-30 00:53N 29°18' W 120°23'512.6
2018-Jul-30 00:30N 29°21' W 120°28'612.6
2018-Jul-30 00:00N 29°25' W 120°33'812.6
2018-Jul-29 23:21N 29°30' W 120°41'4812.5
2018-Jul-29 19:31N 29°59' W 121°24'112.4
2018-Jul-29 19:25N 30°00' W 121°25'1212.3
2018-Jul-29 18:26N 30°07' W 121°36'712.4
2018-Jul-29 17:51N 30°12' W 121°43'412.3
2018-Jul-29 17:30N 30°15' W 121°47'712.2
2018-Jul-29 16:57N 30°19' W 121°53'612.3
2018-Jul-29 16:30N 30°22' W 121°58'612.3
2018-Jul-29 16:01N 30°27' W 122°03'612.4
2018-Jul-29 15:31N 30°31' W 122°08'612.2
2018-Jul-29 15:00N 30°35' W 122°13'1212.5
2018-Jul-29 14:00N 30°44' W 122°23'612.4
2018-Jul-29 13:30N 30°48' W 122°29'612.2
2018-Jul-29 13:01N 30°53' W 122°34'612.3
2018-Jul-29 12:31N 30°57' W 122°39'612.3
2018-Jul-29 12:00N 31°01' W 122°44'611.9
2018-Jul-29 11:28N 31°06' W 122°49'612.0
2018-Jul-29 11:00N 31°10' W 122°54'811.9
2018-Jul-29 10:19N 31°16' W 123°00'412.0
2018-Jul-29 10:00N 31°18' W 123°03'612.0
2018-Jul-29 09:31N 31°23' W 123°08'611.9
2018-Jul-29 09:01N 31°27' W 123°13'1412.0
2018-Jul-29 07:50N 31°37' W 123°25'412.0
2018-Jul-29 07:30N 31°40' W 123°28'611.8
2018-Jul-29 07:00N 31°44' W 123°33'612.0
2018-Jul-29 06:29N 31°48' W 123°38'1512.2
2018-Jul-29 05:14N 32°01' W 123°48'312.3
2018-Jul-29 05:00N 32°04' W 123°50'2512.3
2018-Jul-29 02:57N 32°25' W 124°06'612.1
2018-Jul-29 02:25N 32°30' W 124°10'612.1
2018-Jul-29 01:54N 32°36' W 124°13'712.2
2018-Jul-29 01:22N 32°41' W 124°18'512.2
2018-Jul-29 00:56N 32°46' W 124°21'612.2
2018-Jul-29 00:25N 32°51' W 124°25'812.3
2018-Jul-28 23:47N 32°58' W 124°30'412.2
2018-Jul-28 23:30N 33°01' W 124°32'812.2
2018-Jul-28 22:50N 33°07' W 124°37'412.0
2018-Jul-28 22:30N 33°11' W 124°40'711.9
2018-Jul-28 21:57N 33°16' W 124°44'612.0
2018-Jul-28 21:29N 33°21' W 124°48'611.8
2018-Jul-28 21:00N 33°26' W 124°51'3411.9
2018-Jul-28 18:08N 33°55' W 125°13'3612.0
2018-Jul-28 15:08N 34°25' W 125°36'212.1
2018-Jul-28 15:00N 34°27' W 125°37'812.1
2018-Jul-28 14:20N 34°33' W 125°43'412.1
2018-Jul-28 13:59N 34°37' W 125°45'9112.2
2018-Jul-28 06:32N 35°54' W 126°45'112.1
2018-Jul-28 06:25N 35°55' W 126°45'5112.2
2018-Jul-28 02:16N 36°38' W 127°19'312.1
2018-Jul-28 02:00N 36°41' W 127°21'7911.9
2018-Jul-27 19:21N 37°53' W 128°03'20512.3
2018-Jul-27 02:45N 41°11' W 129°08'312.4
2018-Jul-27 02:30N 41°14' W 129°09'812.3
2018-Jul-27 01:49N 41°23' W 129°10'712.5
2018-Jul-27 01:13N 41°30' W 129°11'2112.5
2018-Jul-26 23:31N 41°51' W 129°14'1518.2
2018-Jul-26 22:43N 42°06' W 129°16'0 0.4
2018-Jul-26 22:20N 42°06' W 129°16'2812.3
2018-Jul-26 20:01N 42°34' W 129°20'211.9
2018-Jul-26 19:50N 42°36' W 129°21'512.0
2018-Jul-26 19:26N 42°41' W 129°21'712.2
2018-Jul-26 18:50N 42°49' W 129°20'412.1
2018-Jul-26 18:30N 42°53' W 129°19'4412.4
2018-Jul-26 14:57N 43°36' W 129°14'612.7
2018-Jul-26 14:28N 43°43' W 129°13'2412.2
2018-Jul-26 12:28N 44°07' W 129°10'812.4
2018-Jul-26 11:50N 44°15' W 129°09'9812.1
2018-Jul-26 03:43N 45°53' W 128°57'312.1
2018-Jul-26 03:26N 45°56' W 128°57'512.0
2018-Jul-26 03:00N 46°01' W 128°56'610.9
2018-Jul-26 02:29N 46°07' W 128°55'910.8
2018-Jul-26 01:41N 46°14' W 128°48'311.9
2018-Jul-26 01:28N 46°16' W 128°45'611.9
2018-Jul-26 00:56N 46°20' W 128°38'511.7
2018-Jul-26 00:30N 46°23' W 128°33'2711.8
2018-Jul-25 22:13N 46°41' W 128°04'311.7
2018-Jul-25 22:00N 46°43' W 128°01'611.7
2018-Jul-25 21:30N 46°46' W 127°54'611.7
2018-Jul-25 20:59N 46°50' W 127°48'611.6
2018-Jul-25 20:29N 46°54' W 127°41'611.5
2018-Jul-25 20:00N 46°58' W 127°35'611.7
2018-Jul-25 19:30N 47°02' W 127°29'611.5
2018-Jul-25 19:00N 47°05' W 127°23'611.4
2018-Jul-25 18:31N 47°09' W 127°16'711.3
2018-Jul-25 17:51N 47°14' W 127°08'611.2
2018-Jul-25 17:21N 47°18' W 127°02'411.3
2018-Jul-25 16:58N 47°21' W 126°57'611.2
2018-Jul-25 16:28N 47°24' W 126°51'511.2
2018-Jul-25 16:01N 47°28' W 126°45'510.9
2018-Jul-25 15:31N 47°31' W 126°39'611.0
2018-Jul-25 15:00N 47°35' W 126°33'611.1
2018-Jul-25 14:30N 47°38' W 126°27'611.1
2018-Jul-25 14:00N 47°42' W 126°20'611.2
2018-Jul-25 13:30N 47°46' W 126°14'611.2
2018-Jul-25 13:00N 47°49' W 126°08'611.3
2018-Jul-25 12:30N 47°53' W 126°01'611.2
2018-Jul-25 12:00N 47°57' W 125°55'611.3
2018-Jul-25 11:30N 48°00' W 125°49'1211.4
2018-Jul-25 10:29N 48°08' W 125°36'611.4
2018-Jul-25 09:56N 48°12' W 125°28'611.5
2018-Jul-25 09:25N 48°16' W 125°22'511.4
2018-Jul-25 08:58N 48°20' W 125°16'611.4
2018-Jul-25 08:27N 48°23' W 125°09'511.1
2018-Jul-25 08:00N 48°27' W 125°05'5 9.9
2018-Jul-25 07:30N 48°31' W 124°59'510.7
2018-Jul-25 07:00N 48°31' W 124°51'510.9
2018-Jul-25 06:30N 48°30' W 124°43'611.3
2018-Jul-25 06:01N 48°28' W 124°35'611.2
2018-Jul-25 05:30N 48°26' W 124°27'611.1
2018-Jul-25 05:00N 48°24' W 124°19'611.2
2018-Jul-25 04:31N 48°22' W 124°12'611.8
2018-Jul-25 04:00N 48°19' W 124°03'611.8
2018-Jul-25 03:29N 48°17' W 123°55'812.0
2018-Jul-25 02:51N 48°16' W 123°43'711.9
2018-Jul-25 02:17N 48°15' W 123°33'411.6
2018-Jul-25 01:58N 48°17' W 123°29'611.0
2018-Jul-25 01:25N 48°23' W 123°24'4 8.5
2018-Jul-25 01:00N 48°23' W 123°19'510.4
2018-Jul-25 00:31N 48°26' W 123°12'510.8
2018-Jul-25 00:01N 48°31' W 123°13'510.7
2018-Jul-24 23:30N 48°36' W 123°14'510.2
2018-Jul-24 23:01N 48°41' W 123°15'510.1
2018-Jul-24 22:31N 48°44' W 123°09'8 8.0
2018-Jul-24 21:29N 48°51' W 123°03'611.5
2018-Jul-24 21:00N 48°55' W 123°09'611.3
2018-Jul-24 20:30N 48°59' W 123°15'611.6
2018-Jul-24 20:00N 49°03' W 123°22'610.8
2018-Jul-24 19:29N 49°08' W 123°23'712.1
2018-Jul-24 18:56N 49°15' W 123°21'510.8
2018-Jul-24 18:30N 49°19' W 123°16'510.5
2018-Jul-24 18:00N 49°19' W 123°09'3 6.8
2018-Jul-24 17:30N 49°18' W 123°04'1 0.1
2018-Jul-24 02:04N 49°18' W 123°02'0 0.0
2018-Jul-23 17:46N 49°18' W 123°02'0 0.0
2018-Jul-23 17:16N 49°18' W 123°02'0 0.0
2018-Jul-23 16:40N 49°18' W 123°02'0 0.0
2018-Jul-23 16:16N 49°18' W 123°02'0 0.0
2018-Jul-23 13:28N 49°18' W 123°02'0 0.0
2018-Jul-22 17:04N 49°18' W 123°02'0 0.1
2018-Jul-22 16:58N 49°18' W 123°02'0 0.0
2018-Jul-22 15:40N 49°18' W 123°02'0 0.0
2018-Jul-22 14:52N 49°18' W 123°02'0 0.0
2018-Jul-22 13:46N 49°18' W 123°02'0 0.0
2018-Jul-22 13:28N 49°18' W 123°02'0 0.0
2018-Jul-22 11:16N 49°18' W 123°02'0 0.0
2018-Jul-22 10:58N 49°18' W 123°02'0 0.0
2018-Jul-22 10:16N 49°18' W 123°02'0 0.0
2018-Jul-22 09:52N 49°18' W 123°02'0 0.0
2018-Jul-22 09:22N 49°18' W 123°02'0 0.0
2018-Jul-22 07:52N 49°18' W 123°02'0 0.0
2018-Jul-22 07:28N 49°18' W 123°02'0 0.0
2018-Jul-22 06:46N 49°18' W 123°02'0 0.0
2018-Jul-22 04:07N 49°18' W 123°02'0 0.0
2018-Jul-22 02:37N 49°18' W 123°02'0 0.0
2018-Jul-20 21:34N 49°18' W 123°02'0 0.0
2018-Jul-20 20:28N 49°18' W 123°02'0 0.0
2018-Jul-20 16:34N 49°18' W 123°02'0 0.0
2018-Jul-20 16:16N 49°18' W 123°02'0 0.0
2018-Jul-20 14:58N 49°18' W 123°02'0 0.0
2018-Jul-20 13:46N 49°18' W 123°02'0 0.0
2018-Jul-20 12:52N 49°18' W 123°02'0 0.0
2018-Jul-20 12:10N 49°18' W 123°02'0 0.0
2018-Jul-20 11:40N 49°18' W 123°02'0 0.0
2018-Jul-20 11:16N 49°18' W 123°02'0 0.0
2018-Jul-20 10:52N 49°18' W 123°02'0 0.0
2018-Jul-20 10:28N 49°18' W 123°02'  
Track history (hours):
 
Tides and Currents Weather Stations Pressure Air Temp Water Temp Dewpoint Dewpoint Depression Visibility Wind Speed Wind Dir Waves Ship Positions

Giorgos Dracopoulos

Last reported at 2018-Jul-30 10:03 UTC. Time now 2018-Aug-17 11:41 UTC.
Position N 28°07' W 118°40'.
Warning: this ship's position is 18 days out of date.

Length 199 m; draft 13.2 m.

Type: Cargo ship. MMSI: 229523000.

Date/timePositionNaut miles runAvg speedWind from/ knotsBaromVisibWave heightAir tempDewpointWater temp
2018-Jul-30 10:03N 28°07' W 118°40'112.1
2018-Jul-30 10:00N 28°07' W 118°40'3712.6
2018-Jul-30 07:04N 28°30' W 119°14'312.4
2018-Jul-30 06:50N 28°32' W 119°16'512.5
2018-Jul-30 06:25N 28°35' W 119°21'512.4
2018-Jul-30 06:01N 28°38' W 119°25'612.2
2018-Jul-30 05:30N 28°42' W 119°31'612.2
2018-Jul-30 05:00N 28°46' W 119°36'712.3
2018-Jul-30 04:26N 28°50' W 119°43'712.6
2018-Jul-30 03:54N 28°54' W 119°49'513.1
2018-Jul-30 03:30N 28°57' W 119°53'612.8
2018-Jul-30 03:00N 29°01' W 119°59'612.6
2018-Jul-30 02:30N 29°05' W 120°05'912.6
2018-Jul-30 01:49N 29°10' W 120°13'412.8
2018-Jul-30 01:30N 29°13' W 120°16'812.6
2018-Jul-30 00:53N 29°18' W 120°23'512.6
2018-Jul-30 00:30N 29°21' W 120°28'612.6
2018-Jul-30 00:00N 29°25' W 120°33'812.6
2018-Jul-29 23:21N 29°30' W 120°41'4812.5
2018-Jul-29 19:31N 29°59' W 121°24'112.4
2018-Jul-29 19:25N 30°00' W 121°25'1212.3
2018-Jul-29 18:26N 30°07' W 121°36'712.4
2018-Jul-29 17:51N 30°12' W 121°43'412.3
2018-Jul-29 17:30N 30°15' W 121°47'712.2
2018-Jul-29 16:57N 30°19' W 121°53'612.3
2018-Jul-29 16:30N 30°22' W 121°58'612.3
2018-Jul-29 16:01N 30°27' W 122°03'612.4
2018-Jul-29 15:31N 30°31' W 122°08'612.2
2018-Jul-29 15:00N 30°35' W 122°13'1212.5
2018-Jul-29 14:00N 30°44' W 122°23'612.4
2018-Jul-29 13:30N 30°48' W 122°29'612.2
2018-Jul-29 13:01N 30°53' W 122°34'612.3
2018-Jul-29 12:31N 30°57' W 122°39'612.3
2018-Jul-29 12:00N 31°01' W 122°44'611.9
2018-Jul-29 11:28N 31°06' W 122°49'612.0
2018-Jul-29 11:00N 31°10' W 122°54'811.9
2018-Jul-29 10:19N 31°16' W 123°00'412.0
2018-Jul-29 10:00N 31°18' W 123°03'612.0
2018-Jul-29 09:31N 31°23' W 123°08'611.9
2018-Jul-29 09:01N 31°27' W 123°13'1412.0
2018-Jul-29 07:50N 31°37' W 123°25'412.0
2018-Jul-29 07:30N 31°40' W 123°28'611.8
2018-Jul-29 07:00N 31°44' W 123°33'612.0
2018-Jul-29 06:29N 31°48' W 123°38'1512.2
2018-Jul-29 05:14N 32°01' W 123°48'312.3
2018-Jul-29 05:00N 32°04' W 123°50'2512.3
2018-Jul-29 02:57N 32°25' W 124°06'612.1
2018-Jul-29 02:25N 32°30' W 124°10'612.1
2018-Jul-29 01:54N 32°36' W 124°13'712.2
2018-Jul-29 01:22N 32°41' W 124°18'512.2
2018-Jul-29 00:56N 32°46' W 124°21'612.2
2018-Jul-29 00:25N 32°51' W 124°25'812.3
2018-Jul-28 23:47N 32°58' W 124°30'412.2
2018-Jul-28 23:30N 33°01' W 124°32'812.2
2018-Jul-28 22:50N 33°07' W 124°37'412.0
2018-Jul-28 22:30N 33°11' W 124°40'711.9
2018-Jul-28 21:57N 33°16' W 124°44'612.0
2018-Jul-28 21:29N 33°21' W 124°48'611.8
2018-Jul-28 21:00N 33°26' W 124°51'3411.9
2018-Jul-28 18:08N 33°55' W 125°13'3612.0
2018-Jul-28 15:08N 34°25' W 125°36'212.1
2018-Jul-28 15:00N 34°27' W 125°37'812.1
2018-Jul-28 14:20N 34°33' W 125°43'412.1
2018-Jul-28 13:59N 34°37' W 125°45'9112.2
2018-Jul-28 06:32N 35°54' W 126°45'112.1
2018-Jul-28 06:25N 35°55' W 126°45'5112.2
2018-Jul-28 02:16N 36°38' W 127°19'312.1
2018-Jul-28 02:00N 36°41' W 127°21'7911.9
2018-Jul-27 19:21N 37°53' W 128°03'20512.3
2018-Jul-27 02:45N 41°11' W 129°08'312.4
2018-Jul-27 02:30N 41°14' W 129°09'812.3
2018-Jul-27 01:49N 41°23' W 129°10'712.5
2018-Jul-27 01:13N 41°30' W 129°11'2112.5
2018-Jul-26 23:31N 41°51' W 129°14'1518.2
2018-Jul-26 22:43N 42°06' W 129°16'0 0.4
2018-Jul-26 22:20N 42°06' W 129°16'2812.3
2018-Jul-26 20:01N 42°34' W 129°20'211.9
2018-Jul-26 19:50N 42°36' W 129°21'512.0
2018-Jul-26 19:26N 42°41' W 129°21'712.2
2018-Jul-26 18:50N 42°49' W 129°20'412.1
2018-Jul-26 18:30N 42°53' W 129°19'4412.4
2018-Jul-26 14:57N 43°36' W 129°14'612.7
2018-Jul-26 14:28N 43°43' W 129°13'2412.2
2018-Jul-26 12:28N 44°07' W 129°10'812.4
2018-Jul-26 11:50N 44°15' W 129°09'9812.1
2018-Jul-26 03:43N 45°53' W 128°57'312.1
2018-Jul-26 03:26N 45°56' W 128°57'512.0
2018-Jul-26 03:00N 46°01' W 128°56'610.9
2018-Jul-26 02:29N 46°07' W 128°55'910.8
2018-Jul-26 01:41N 46°14' W 128°48'311.9
2018-Jul-26 01:28N 46°16' W 128°45'611.9
2018-Jul-26 00:56N 46°20' W 128°38'511.7
2018-Jul-26 00:30N 46°23' W 128°33'2711.8
2018-Jul-25 22:13N 46°41' W 128°04'311.7
2018-Jul-25 22:00N 46°43' W 128°01'611.7
2018-Jul-25 21:30N 46°46' W 127°54'611.7
2018-Jul-25 20:59N 46°50' W 127°48'611.6
2018-Jul-25 20:29N 46°54' W 127°41'611.5
2018-Jul-25 20:00N 46°58' W 127°35'611.7
2018-Jul-25 19:30N 47°02' W 127°29'611.5
2018-Jul-25 19:00N 47°05' W 127°23'611.4
2018-Jul-25 18:31N 47°09' W 127°16'711.3
2018-Jul-25 17:51N 47°14' W 127°08'611.2
2018-Jul-25 17:21N 47°18' W 127°02'411.3
2018-Jul-25 16:58N 47°21' W 126°57'611.2
2018-Jul-25 16:28N 47°24' W 126°51'511.2
2018-Jul-25 16:01N 47°28' W 126°45'510.9
2018-Jul-25 15:31N 47°31' W 126°39'611.0
2018-Jul-25 15:00N 47°35' W 126°33'611.1
2018-Jul-25 14:30N 47°38' W 126°27'611.1
2018-Jul-25 14:00N 47°42' W 126°20'611.2
2018-Jul-25 13:30N 47°46' W 126°14'611.2
2018-Jul-25 13:00N 47°49' W 126°08'611.3
2018-Jul-25 12:30N 47°53' W 126°01'611.2
2018-Jul-25 12:00N 47°57' W 125°55'611.3
2018-Jul-25 11:30N 48°00' W 125°49'1211.4
2018-Jul-25 10:29N 48°08' W 125°36'611.4
2018-Jul-25 09:56N 48°12' W 125°28'611.5
2018-Jul-25 09:25N 48°16' W 125°22'511.4
2018-Jul-25 08:58N 48°20' W 125°16'611.4
2018-Jul-25 08:27N 48°23' W 125°09'511.1
2018-Jul-25 08:00N 48°27' W 125°05'5 9.9
2018-Jul-25 07:30N 48°31' W 124°59'510.7
2018-Jul-25 07:00N 48°31' W 124°51'510.9
2018-Jul-25 06:30N 48°30' W 124°43'611.3
2018-Jul-25 06:01N 48°28' W 124°35'611.2
2018-Jul-25 05:30N 48°26' W 124°27'611.1
2018-Jul-25 05:00N 48°24' W 124°19'611.2
2018-Jul-25 04:31N 48°22' W 124°12'611.8
2018-Jul-25 04:00N 48°19' W 124°03'611.8
2018-Jul-25 03:29N 48°17' W 123°55'812.0
2018-Jul-25 02:51N 48°16' W 123°43'711.9
2018-Jul-25 02:17N 48°15' W 123°33'411.6
2018-Jul-25 01:58N 48°17' W 123°29'611.0
2018-Jul-25 01:25N 48°23' W 123°24'4 8.5
2018-Jul-25 01:00N 48°23' W 123°19'510.4
2018-Jul-25 00:31N 48°26' W 123°12'510.8
2018-Jul-25 00:01N 48°31' W 123°13'510.7
2018-Jul-24 23:30N 48°36' W 123°14'510.2
2018-Jul-24 23:01N 48°41' W 123°15'510.1
2018-Jul-24 22:31N 48°44' W 123°09'8 8.0
2018-Jul-24 21:29N 48°51' W 123°03'611.5
2018-Jul-24 21:00N 48°55' W 123°09'611.3
2018-Jul-24 20:30N 48°59' W 123°15'611.6
2018-Jul-24 20:00N 49°03' W 123°22'610.8
2018-Jul-24 19:29N 49°08' W 123°23'712.1
2018-Jul-24 18:56N 49°15' W 123°21'510.8
2018-Jul-24 18:30N 49°19' W 123°16'510.5
2018-Jul-24 18:00N 49°19' W 123°09'3 6.8
2018-Jul-24 17:30N 49°18' W 123°04'1 0.1
2018-Jul-24 02:04N 49°18' W 123°02'0 0.0
2018-Jul-23 17:46N 49°18' W 123°02'0 0.0
2018-Jul-23 17:16N 49°18' W 123°02'0 0.0
2018-Jul-23 16:40N 49°18' W 123°02'0 0.0
2018-Jul-23 16:16N 49°18' W 123°02'0 0.0
2018-Jul-23 13:28N 49°18' W 123°02'0 0.0
2018-Jul-22 17:04N 49°18' W 123°02'0 0.1
2018-Jul-22 16:58N 49°18' W 123°02'0 0.0
2018-Jul-22 15:40N 49°18' W 123°02'0 0.0
2018-Jul-22 14:52N 49°18' W 123°02'0 0.0
2018-Jul-22 13:46N 49°18' W 123°02'0 0.0
2018-Jul-22 13:28N 49°18' W 123°02'0 0.0
2018-Jul-22 11:16N 49°18' W 123°02'0 0.0
2018-Jul-22 10:58N 49°18' W 123°02'0 0.0
2018-Jul-22 10:16N 49°18' W 123°02'0 0.0
2018-Jul-22 09:52N 49°18' W 123°02'0 0.0
2018-Jul-22 09:22N 49°18' W 123°02'0 0.0
2018-Jul-22 07:52N 49°18' W 123°02'0 0.0
2018-Jul-22 07:28N 49°18' W 123°02'0 0.0
2018-Jul-22 06:46N 49°18' W 123°02'0 0.0
2018-Jul-22 04:07N 49°18' W 123°02'0 0.0
2018-Jul-22 02:37N 49°18' W 123°02'0 0.0
2018-Jul-20 21:34N 49°18' W 123°02'0 0.0
2018-Jul-20 20:28N 49°18' W 123°02'0 0.0
2018-Jul-20 16:34N 49°18' W 123°02'0 0.0
2018-Jul-20 16:16N 49°18' W 123°02'0 0.0
2018-Jul-20 14:58N 49°18' W 123°02'0 0.0
2018-Jul-20 13:46N 49°18' W 123°02'0 0.0
2018-Jul-20 12:52N 49°18' W 123°02'0 0.0
2018-Jul-20 12:10N 49°18' W 123°02'0 0.0
2018-Jul-20 11:40N 49°18' W 123°02'0 0.0
2018-Jul-20 11:16N 49°18' W 123°02'0 0.0
2018-Jul-20 10:52N 49°18' W 123°02'0 0.0
2018-Jul-20 10:28N 49°18' W 123°02'  

Dump ship's entire track history